Aviation Digital Data Service (ADDS)

Output produced by TAFs form (2340 UTC 18 July 2018)
found at http://www.aviationweather.gov/adds/tafs/
 
RJSS 182325Z VRB01KT 6000 FEW007 SCT009 BKN011 26/26 Q1011 RMK 1ST007 4ST009 7ST011 A2987
TAF RJSS 182305Z 1900/2006 12006KT 9999 FEW010 
     TEMPO 1900/1902 FEW005 BKN008 
     TEMPO 1909/1912 FEW002 BKN005 
     TEMPO 1912/2000 3000 BR FEW002 BKN005